createdAt,value
2022-12-06T00:02:17.875Z,6.16
2022-12-06T00:04:49.617Z,6.19
2022-12-06T00:07:22.016Z,6.20
2022-12-06T00:09:51.845Z,6.20
2022-12-06T00:12:21.673Z,6.24
2022-12-06T00:14:51.471Z,6.27
2022-12-06T00:17:21.272Z,6.28
2022-12-06T00:19:51.139Z,6.27
2022-12-06T00:22:23.557Z,6.25
2022-12-06T00:24:53.349Z,6.19
2022-12-06T00:27:23.164Z,6.15
2022-12-06T00:29:52.991Z,6.11
2022-12-06T00:32:22.861Z,6.07
2022-12-06T00:34:52.688Z,6.05
2022-12-06T00:37:25.087Z,6.02
2022-12-06T00:39:54.912Z,6.00
2022-12-06T00:42:24.709Z,5.96
2022-12-06T00:44:54.539Z,5.91
2022-12-06T00:47:24.376Z,5.94
2022-12-06T00:49:54.294Z,5.95
2022-12-06T00:52:26.750Z,5.96
2022-12-06T00:54:56.558Z,5.95
2022-12-06T00:57:26.397Z,5.95
2022-12-06T00:59:56.211Z,5.96
2022-12-06T01:02:26.024Z,6.00
2022-12-06T01:04:55.845Z,6.01
2022-12-06T01:07:28.273Z,6.04
2022-12-06T01:09:58.244Z,6.10
2022-12-06T01:12:28.207Z,6.19
2022-12-06T01:14:57.859Z,6.22
2022-12-06T01:17:27.577Z,6.24
2022-12-06T01:19:57.427Z,6.28
2022-12-06T01:22:29.864Z,6.30
2022-12-06T01:24:59.532Z,6.29
2022-12-06T01:27:29.909Z,6.25
2022-12-06T01:30:00.022Z,6.22
2022-12-06T01:32:32.029Z,6.20
2022-12-06T01:35:01.697Z,6.19
2022-12-06T01:37:34.039Z,6.18
2022-12-06T01:40:03.793Z,6.13
2022-12-06T01:42:33.497Z,6.15
2022-12-06T01:45:03.284Z,6.14
2022-12-06T01:47:36.275Z,6.11
2022-12-06T01:50:12.490Z,6.11
2022-12-06T01:52:52.694Z,6.09
2022-12-06T01:55:24.218Z,6.09
2022-12-06T01:57:55.851Z,6.11
2022-12-06T02:00:25.800Z,6.12
2022-12-06T02:02:57.711Z,6.11
2022-12-06T02:05:28.822Z,6.10
2022-12-06T02:08:03.175Z,6.14
2022-12-06T02:10:33.698Z,6.18
2022-12-06T02:13:03.444Z,6.20
2022-12-06T02:15:43.355Z,6.24
2022-12-06T02:18:16.940Z,6.23
2022-12-06T02:20:53.605Z,6.18
2022-12-06T02:24:02.583Z,6.11
2022-12-06T02:26:40.500Z,6.05
2022-12-06T02:29:48.059Z,6.01
2022-12-06T02:32:24.184Z,5.93
2022-12-06T02:34:59.087Z,5.92
2022-12-06T02:37:34.104Z,5.89
2022-12-06T02:40:09.147Z,5.90
2022-12-06T02:42:44.772Z,5.88
2022-12-06T02:45:18.657Z,5.84
2022-12-06T02:47:53.035Z,5.84
2022-12-06T02:50:28.159Z,5.83
2022-12-06T02:53:02.187Z,5.84
2022-12-06T02:55:33.234Z,5.84
2022-12-06T02:58:02.948Z,5.80
2022-12-06T03:00:37.217Z,5.80
2022-12-06T03:03:42.884Z,5.81
2022-12-06T03:06:50.611Z,5.82
2022-12-06T03:09:50.679Z,5.84
2022-12-06T03:12:30.370Z,5.87
2022-12-06T03:15:09.204Z,5.88
2022-12-06T03:17:44.211Z,5.91
2022-12-06T03:20:21.912Z,5.93
2022-12-06T03:22:56.755Z,5.94
2022-12-06T03:25:27.393Z,5.94
2022-12-06T03:28:00.083Z,5.98
2022-12-06T03:30:33.531Z,5.99
2022-12-06T03:33:04.589Z,6.00
2022-12-06T03:35:37.978Z,6.01
2022-12-06T03:38:13.041Z,6.03
2022-12-06T03:40:47.652Z,6.04
2022-12-06T03:43:18.128Z,6.04
2022-12-06T03:45:52.505Z,6.04
2022-12-06T03:48:25.543Z,6.04
2022-12-06T03:51:02.565Z,6.05
2022-12-06T03:53:32.251Z,6.02
2022-12-06T03:56:02.520Z,6.03
2022-12-06T03:58:32.401Z,6.06
2022-12-06T04:01:09.532Z,6.07
2022-12-06T04:03:39.288Z,6.10
2022-12-06T04:06:13.396Z,6.12
2022-12-06T04:08:43.103Z,6.15
2022-12-06T04:11:12.843Z,6.16
2022-12-06T04:13:42.952Z,6.18
2022-12-06T04:16:24.997Z,6.17
2022-12-06T04:18:54.789Z,6.17
2022-12-06T04:21:39.493Z,6.17
2022-12-06T04:24:09.554Z,6.18
2022-12-06T04:26:39.267Z,6.21
2022-12-06T04:29:21.356Z,6.19
2022-12-06T04:32:06.211Z,6.18
2022-12-06T04:34:48.297Z,6.16
2022-12-06T04:37:32.967Z,6.16
2022-12-06T04:40:02.957Z,6.17
2022-12-06T04:42:45.289Z,6.18
2022-12-06T04:45:15.355Z,6.18
2022-12-06T04:47:45.077Z,6.18
2022-12-06T04:50:14.762Z,6.19
2022-12-06T04:52:47.096Z,6.19
2022-12-06T04:55:16.871Z,6.20
2022-12-06T04:57:46.685Z,6.22
2022-12-06T05:00:17.811Z,6.22
2022-12-06T05:02:47.611Z,6.17
2022-12-06T05:05:17.501Z,6.14
2022-12-06T05:07:49.780Z,6.10
2022-12-06T05:10:19.611Z,6.05
2022-12-06T05:12:49.270Z,6.01
2022-12-06T05:15:19.204Z,6.00
2022-12-06T05:17:48.958Z,5.99
2022-12-06T05:20:18.882Z,6.00
2022-12-06T05:22:51.276Z,5.99
2022-12-06T05:25:20.983Z,6.00
2022-12-06T05:27:50.677Z,5.98
2022-12-06T05:30:20.935Z,5.96
2022-12-06T05:32:56.703Z,5.94
2022-12-06T05:35:27.007Z,5.93
2022-12-06T05:37:59.295Z,5.93
2022-12-06T05:40:28.968Z,5.96
2022-12-06T05:42:58.625Z,5.97
2022-12-06T05:45:28.304Z,6.00
2022-12-06T05:47:57.954Z,6.01
2022-12-06T05:50:27.642Z,5.99
2022-12-06T05:53:00.916Z,5.98
2022-12-06T05:55:31.210Z,6.00
2022-12-06T05:58:00.886Z,5.99
2022-12-06T06:00:30.571Z,5.99
2022-12-06T06:03:00.601Z,5.98
2022-12-06T06:05:30.460Z,5.98
2022-12-06T06:08:02.805Z,5.96
2022-12-06T06:10:32.539Z,5.96
2022-12-06T06:13:02.271Z,5.93
2022-12-06T06:15:31.940Z,5.90
2022-12-06T06:18:01.599Z,5.85
2022-12-06T06:20:31.495Z,5.84
2022-12-06T06:23:04.013Z,5.80
2022-12-06T06:25:33.729Z,5.76
2022-12-06T06:28:03.498Z,5.70
2022-12-06T06:30:33.181Z,5.67
2022-12-06T06:33:02.926Z,5.63
2022-12-06T06:35:32.700Z,5.60
2022-12-06T06:38:05.509Z,5.57
2022-12-06T06:40:35.848Z,5.53
2022-12-06T06:43:18.627Z,5.49
2022-12-06T06:45:49.239Z,5.45
2022-12-06T06:48:18.931Z,5.42
2022-12-06T06:50:52.615Z,5.39
2022-12-06T06:53:28.088Z,5.36
2022-12-06T06:55:58.299Z,5.31
2022-12-06T06:58:28.548Z,5.29
2022-12-06T07:00:59.953Z,5.27
2022-12-06T07:03:30.610Z,5.24
2022-12-06T07:06:02.247Z,5.21
2022-12-06T07:08:35.510Z,5.20
2022-12-06T07:11:05.239Z,5.19
2022-12-06T07:13:35.503Z,5.16
2022-12-06T07:16:06.159Z,5.15
2022-12-06T07:18:36.115Z,5.14
2022-12-06T07:21:08.713Z,5.12
2022-12-06T07:23:41.010Z,5.10
2022-12-06T07:26:13.595Z,5.09
2022-12-06T07:28:45.065Z,5.06
2022-12-06T07:31:17.486Z,5.05
2022-12-06T07:33:48.099Z,5.05
2022-12-06T07:36:18.700Z,5.03
2022-12-06T07:38:54.429Z,5.05
2022-12-06T07:41:38.188Z,5.06
2022-12-06T07:44:20.425Z,5.08
2022-12-06T07:46:51.158Z,5.09
2022-12-06T07:49:21.745Z,5.10
2022-12-06T07:51:51.764Z,5.12
2022-12-06T07:54:24.863Z,5.15
2022-12-06T07:56:56.411Z,5.16
2022-12-06T07:59:26.183Z,5.19
2022-12-06T08:01:56.815Z,5.24
2022-12-06T08:04:28.160Z,5.27
2022-12-06T08:06:57.895Z,5.28
2022-12-06T08:09:30.196Z,5.31
2022-12-06T08:11:59.880Z,5.32
2022-12-06T08:14:29.726Z,5.32
2022-12-06T08:16:59.412Z,5.34
2022-12-06T08:19:29.732Z,5.35
2022-12-06T08:21:59.523Z,5.37
2022-12-06T08:24:31.808Z,5.38
2022-12-06T08:27:01.536Z,5.39
2022-12-06T08:29:31.201Z,5.41
2022-12-06T08:32:00.947Z,5.43
2022-12-06T08:34:30.670Z,5.43
2022-12-06T08:37:03.282Z,5.46
2022-12-06T08:39:36.228Z,5.50
2022-12-06T08:42:07.951Z,5.53
2022-12-06T08:44:37.643Z,5.54
2022-12-06T08:47:07.492Z,5.53
2022-12-06T08:49:37.483Z,5.52
2022-12-06T08:52:07.599Z,5.52
2022-12-06T08:54:39.927Z,5.51
2022-12-06T08:57:09.858Z,5.49
2022-12-06T08:59:40.513Z,5.49
2022-12-06T09:02:10.260Z,5.50
2022-12-06T09:04:40.187Z,5.53
2022-12-06T09:07:11.910Z,5.55
2022-12-06T09:09:46.338Z,5.58
2022-12-06T09:12:16.155Z,5.61
2022-12-06T09:14:45.847Z,5.69
2022-12-06T09:17:15.748Z,5.74
2022-12-06T09:19:45.579Z,5.81
2022-12-06T09:22:15.239Z,5.87
2022-12-06T09:24:47.524Z,5.92
2022-12-06T09:27:17.189Z,5.96
2022-12-06T09:29:46.886Z,6.01
2022-12-06T09:32:16.590Z,6.06
2022-12-06T09:34:46.252Z,6.09
2022-12-06T09:37:16.824Z,6.14
2022-12-06T09:39:53.806Z,6.16
2022-12-06T09:42:48.392Z,6.20
2022-12-06T09:45:47.458Z,6.22
2022-12-06T09:48:36.564Z,6.23
2022-12-06T09:51:20.858Z,6.23
2022-12-06T09:54:07.510Z,6.22
2022-12-06T09:56:45.505Z,6.23
2022-12-06T09:59:22.875Z,6.24
2022-12-06T10:02:18.572Z,6.26
2022-12-06T10:05:01.384Z,6.29
2022-12-06T10:07:41.594Z,6.34
2022-12-06T10:10:23.480Z,6.36
2022-12-06T10:13:09.612Z,6.43
2022-12-06T10:15:54.765Z,6.46
2022-12-06T10:18:37.771Z,6.49
2022-12-06T10:21:19.363Z,6.54
2022-12-06T10:24:03.243Z,6.57
2022-12-06T10:26:42.007Z,6.60
2022-12-06T10:29:27.539Z,6.65
2022-12-06T10:32:01.433Z,6.71
2022-12-06T10:34:48.894Z,6.77
2022-12-06T10:37:34.284Z,6.81
2022-12-06T10:40:11.039Z,6.83
2022-12-06T10:42:46.109Z,6.86
2022-12-06T10:45:41.578Z,6.91
2022-12-06T10:48:19.453Z,6.93
2022-12-06T10:50:53.905Z,6.96
2022-12-06T10:53:26.583Z,6.99
2022-12-06T10:56:01.472Z,7.01
2022-12-06T10:58:37.668Z,7.01
2022-12-06T11:01:15.188Z,7.02
2022-12-06T11:03:47.609Z,7.04
2022-12-06T11:06:31.507Z,7.05
2022-12-06T11:09:08.260Z,7.08
2022-12-06T11:11:41.891Z,7.11
2022-12-06T11:14:21.839Z,7.14
2022-12-06T11:16:58.110Z,7.16
2022-12-06T11:19:35.232Z,7.20
2022-12-06T11:22:15.366Z,7.23
2022-12-06T11:24:54.089Z,7.26
2022-12-06T11:27:32.191Z,7.30
2022-12-06T11:30:03.006Z,7.33
2022-12-06T11:32:35.632Z,7.36
2022-12-06T11:35:05.419Z,7.40
2022-12-06T11:37:42.872Z,7.43
2022-12-06T11:40:23.467Z,7.46
2022-12-06T11:42:53.288Z,7.46
2022-12-06T11:45:28.348Z,7.45
2022-12-06T11:48:03.017Z,7.47
2022-12-06T11:50:35.875Z,7.49
2022-12-06T11:53:09.560Z,7.49
2022-12-06T11:55:45.191Z,7.52
2022-12-06T11:58:21.506Z,7.54
2022-12-06T12:01:04.375Z,7.55
2022-12-06T12:03:38.826Z,7.56
2022-12-06T12:06:19.329Z,7.57
2022-12-06T12:08:58.628Z,7.60
2022-12-06T12:11:31.057Z,7.60
2022-12-06T12:14:04.907Z,7.63
2022-12-06T12:16:38.870Z,7.64
2022-12-06T12:19:31.262Z,7.65
2022-12-06T12:22:03.064Z,7.65
2022-12-06T12:27:49.787Z,7.72
2022-12-06T12:30:35.545Z,7.79
2022-12-06T12:33:23.560Z,7.82
2022-12-06T12:35:58.663Z,7.84
2022-12-06T12:38:43.723Z,7.88
2022-12-06T12:41:35.392Z,7.89
2022-12-06T12:44:35.871Z,7.90
2022-12-06T12:46:59.752Z,7.92
2022-12-06T12:49:32.668Z,7.95
2022-12-06T12:52:23.927Z,7.99
2022-12-06T12:55:02.754Z,8.02
2022-12-06T12:57:32.899Z,8.05
2022-12-06T13:00:03.180Z,8.05
2022-12-06T13:02:34.633Z,8.07
2022-12-06T13:08:08.135Z,8.07
2022-12-06T13:10:40.508Z,8.06
2022-12-06T13:13:18.974Z,8.07
2022-12-06T13:15:50.707Z,8.09
2022-12-06T13:18:23.831Z,8.11
2022-12-06T13:20:56.149Z,8.11
2022-12-06T13:23:31.701Z,8.10
2022-12-06T13:26:06.861Z,8.11
2022-12-06T13:28:46.031Z,8.12
2022-12-06T13:31:21.270Z,8.13
2022-12-06T13:33:55.908Z,8.14
2022-12-06T13:36:28.142Z,8.13
2022-12-06T13:39:00.481Z,8.14
2022-12-06T13:42:08.438Z,8.16
2022-12-06T13:44:45.508Z,8.16
2022-12-06T13:47:41.388Z,8.17
2022-12-06T13:50:41.094Z,8.18
2022-12-06T13:53:10.836Z,8.17
2022-12-06T13:56:02.256Z,8.19
2022-12-06T13:58:44.303Z,8.22
2022-12-06T14:01:40.951Z,8.23
2022-12-06T14:04:38.036Z,8.26
2022-12-06T14:09:46.026Z,8.31
2022-12-06T14:12:24.764Z,8.30
2022-12-06T14:14:59.584Z,8.31
2022-12-06T14:18:01.632Z,8.33
2022-12-06T14:20:31.924Z,8.35
2022-12-06T14:23:02.366Z,8.36
2022-12-06T14:25:33.241Z,8.34
2022-12-06T14:28:14.635Z,8.35
2022-12-06T14:30:46.277Z,8.34
2022-12-06T14:33:22.339Z,8.35
2022-12-06T14:35:54.896Z,8.33
2022-12-06T14:38:26.281Z,8.33
2022-12-06T14:41:08.815Z,8.31
2022-12-06T14:43:42.424Z,8.27
2022-12-06T14:46:15.722Z,8.23
2022-12-06T14:48:59.358Z,8.21
2022-12-06T14:51:36.975Z,8.22
2022-12-06T14:54:20.531Z,8.23
2022-12-06T14:56:50.885Z,8.22
2022-12-06T15:00:10.867Z,8.24
2022-12-06T15:02:25.869Z,8.23
2022-12-06T15:04:55.594Z,8.23
2022-12-06T15:07:43.071Z,8.25
2022-12-06T15:10:23.043Z,8.26
2022-12-06T15:12:56.982Z,8.26
2022-12-06T15:15:43.580Z,8.29
2022-12-06T15:18:27.073Z,8.30
2022-12-06T15:20:57.328Z,8.30
2022-12-06T15:23:39.309Z,8.33
2022-12-06T15:26:10.940Z,8.34
2022-12-06T15:28:40.653Z,8.34
2022-12-06T15:31:20.381Z,8.35
2022-12-06T15:33:50.653Z,8.36
2022-12-06T15:36:22.879Z,8.37
2022-12-06T15:38:53.136Z,8.37
2022-12-06T15:41:24.455Z,8.38
2022-12-06T15:43:54.636Z,8.38
2022-12-06T15:46:29.605Z,8.38
2022-12-06T15:48:59.619Z,8.37
2022-12-06T15:51:31.090Z,8.37
2022-12-06T15:54:02.992Z,8.37
2022-12-06T15:56:33.759Z,8.37
2022-12-06T15:59:03.630Z,8.36
2022-12-06T16:01:44.686Z,8.36
2022-12-06T16:04:18.174Z,8.34
2022-12-06T16:06:48.819Z,8.33
2022-12-06T16:09:20.968Z,8.32
2022-12-06T16:11:51.330Z,8.32
2022-12-06T16:14:21.080Z,8.31
2022-12-06T16:16:53.664Z,8.29
2022-12-06T16:19:23.547Z,8.27
2022-12-06T16:21:55.356Z,8.24
2022-12-06T16:24:22.596Z,8.22
2022-12-06T16:26:52.308Z,8.19
2022-12-06T16:29:25.252Z,8.18
2022-12-06T16:31:57.795Z,8.17
2022-12-06T16:34:28.961Z,8.17
2022-12-06T16:37:01.714Z,8.16
2022-12-06T16:39:33.649Z,8.14
2022-12-06T16:42:04.072Z,8.13
2022-12-06T16:44:33.982Z,8.11
2022-12-06T16:47:10.636Z,8.11
2022-12-06T16:49:47.384Z,8.08
2022-12-06T16:52:19.101Z,8.06
2022-12-06T16:54:48.795Z,8.05
2022-12-06T16:57:19.696Z,8.02
2022-12-06T16:59:49.622Z,8.01
2022-12-06T17:02:29.323Z,7.98
2022-12-06T17:05:01.346Z,7.96
2022-12-06T17:07:31.820Z,7.93
2022-12-06T17:10:01.737Z,7.92
2022-12-06T17:12:31.587Z,7.91
2022-12-06T17:15:03.003Z,7.90
2022-12-06T17:17:35.844Z,7.88
2022-12-06T17:20:05.592Z,7.87
2022-12-06T17:22:35.404Z,7.85
2022-12-06T17:25:05.330Z,7.82
2022-12-06T17:27:37.188Z,7.79
2022-12-06T17:30:14.320Z,7.79
2022-12-06T17:32:48.050Z,7.78
2022-12-06T17:35:18.056Z,7.76
2022-12-06T17:37:47.791Z,7.74
2022-12-06T17:40:17.919Z,7.69
2022-12-06T17:43:00.016Z,7.66
2022-12-06T17:45:30.172Z,7.65
2022-12-06T17:48:02.583Z,7.63
2022-12-06T17:50:32.307Z,7.59
2022-12-06T17:53:02.075Z,7.59
2022-12-06T17:55:31.787Z,7.61
2022-12-06T17:58:02.712Z,7.62
2022-12-06T18:00:32.449Z,7.62
2022-12-06T18:03:04.797Z,7.61
2022-12-06T18:05:34.569Z,7.61
2022-12-06T18:08:04.354Z,7.62
2022-12-06T18:10:34.130Z,7.62
2022-12-06T18:13:05.465Z,7.62
2022-12-06T18:15:43.184Z,7.61
2022-12-06T18:18:15.552Z,7.59
2022-12-06T18:20:45.608Z,7.56
2022-12-06T18:23:15.328Z,7.55
2022-12-06T18:25:45.654Z,7.51
2022-12-06T18:28:15.376Z,7.48
2022-12-06T18:30:45.063Z,7.47
2022-12-06T18:33:20.701Z,7.41
2022-12-06T18:35:53.892Z,7.37
2022-12-06T18:38:23.625Z,7.33
2022-12-06T18:40:53.306Z,7.30
2022-12-06T18:43:23.008Z,7.28
2022-12-06T18:46:00.716Z,7.28
2022-12-06T18:48:33.587Z,7.29
2022-12-06T18:51:07.779Z,7.31
2022-12-06T18:53:37.847Z,7.30
2022-12-06T18:56:10.916Z,7.30
2022-12-06T18:58:40.755Z,7.30
2022-12-06T19:01:14.673Z,7.30
2022-12-06T19:03:48.094Z,7.30
2022-12-06T19:06:20.137Z,7.29
2022-12-06T19:08:49.832Z,7.29
2022-12-06T19:11:22.789Z,7.28
2022-12-06T19:13:55.231Z,7.27
2022-12-06T19:16:27.001Z,7.25
2022-12-06T19:19:04.155Z,7.21
2022-12-06T19:21:35.873Z,7.18
2022-12-06T19:24:05.691Z,7.11
2022-12-06T19:26:35.786Z,7.06
2022-12-06T19:29:06.551Z,7.02
2022-12-06T19:31:36.553Z,6.96
2022-12-06T19:34:09.011Z,6.97
2022-12-06T19:36:38.777Z,6.93
2022-12-06T19:39:09.326Z,6.90
2022-12-06T19:41:59.094Z,6.89
2022-12-06T19:44:26.716Z,6.87
2022-12-06T19:46:56.655Z,6.84
2022-12-06T19:49:29.891Z,6.83
2022-12-06T19:51:59.666Z,6.83
2022-12-06T19:54:31.598Z,6.83
2022-12-06T19:57:02.996Z,6.81
2022-12-06T19:59:35.036Z,6.79
2022-12-06T20:02:05.967Z,6.75
2022-12-06T20:04:40.743Z,6.71
2022-12-06T20:07:10.982Z,6.69
2022-12-06T20:09:40.906Z,6.64
2022-12-06T20:12:10.872Z,6.61
2022-12-06T20:14:43.071Z,6.56
2022-12-06T20:17:15.415Z,6.53
2022-12-06T20:19:49.295Z,6.50
2022-12-06T20:22:22.247Z,6.47
2022-12-06T20:24:51.954Z,6.43
2022-12-06T20:27:41.675Z,6.44
2022-12-06T20:30:12.815Z,6.42
2022-12-06T20:32:42.535Z,6.40
2022-12-06T20:35:14.979Z,6.39
2022-12-06T20:37:45.025Z,6.38
2022-12-06T20:40:15.902Z,6.37
2022-12-06T20:42:45.949Z,6.36
2022-12-06T20:45:18.251Z,6.35
2022-12-06T20:47:52.022Z,6.35
2022-12-06T20:50:25.047Z,6.33
2022-12-06T20:52:54.775Z,6.33
2022-12-06T20:55:24.455Z,6.33
2022-12-06T20:57:54.157Z,6.34
2022-12-06T21:00:25.056Z,6.37
2022-12-06T21:02:54.913Z,6.41
2022-12-06T21:05:27.388Z,6.43
2022-12-06T21:07:58.309Z,6.41
2022-12-06T21:10:28.188Z,6.39
2022-12-06T21:13:00.410Z,6.37
2022-12-06T21:15:34.199Z,6.35
2022-12-06T21:18:03.989Z,6.34
2022-12-06T21:20:40.322Z,6.30
2022-12-06T21:23:10.173Z,6.25
2022-12-06T21:25:40.156Z,6.23
2022-12-06T21:28:09.892Z,6.22
2022-12-06T21:30:39.648Z,6.24
2022-12-06T21:33:09.607Z,6.28
2022-12-06T21:35:42.269Z,6.30
2022-12-06T21:38:12.010Z,6.30
2022-12-06T21:40:41.820Z,6.31
2022-12-06T21:43:11.725Z,6.30
2022-12-06T21:45:43.034Z,6.29
2022-12-06T21:48:12.756Z,6.28
2022-12-06T21:50:45.094Z,6.29
2022-12-06T21:53:14.790Z,6.31
2022-12-06T21:55:44.483Z,6.32
2022-12-06T21:58:14.269Z,6.28
2022-12-06T22:00:43.992Z,6.23
2022-12-06T22:03:17.794Z,6.17
2022-12-06T22:05:54.911Z,6.16
2022-12-06T22:08:24.715Z,6.14
2022-12-06T22:10:55.306Z,6.10
2022-12-06T22:13:25.024Z,6.10
2022-12-06T22:15:54.789Z,6.15
2022-12-06T22:18:24.524Z,6.18
2022-12-06T22:21:04.936Z,6.23
2022-12-06T22:23:35.217Z,6.24
2022-12-06T22:26:09.801Z,6.26
2022-12-06T22:28:39.712Z,6.31
2022-12-06T22:31:14.247Z,6.33
2022-12-06T22:33:44.266Z,6.35
2022-12-06T22:36:17.706Z,6.37
2022-12-06T22:38:51.346Z,6.40
2022-12-06T22:41:22.663Z,6.41
2022-12-06T22:43:53.861Z,6.43
2022-12-06T22:46:26.312Z,6.41
2022-12-06T22:48:56.288Z,6.40
2022-12-06T22:51:30.363Z,6.37
2022-12-06T22:54:01.931Z,6.34
2022-12-06T22:56:33.295Z,6.33
2022-12-06T22:59:04.074Z,6.32
2022-12-06T23:01:36.181Z,6.30
2022-12-06T23:04:07.956Z,6.29
2022-12-06T23:06:42.192Z,6.31
2022-12-06T23:09:15.938Z,6.31
2022-12-06T23:11:46.159Z,6.28
2022-12-06T23:14:15.886Z,6.24
2022-12-06T23:16:46.303Z,6.25
2022-12-06T23:19:16.096Z,6.26
2022-12-06T23:21:48.477Z,6.28
2022-12-06T23:24:18.412Z,6.28
2022-12-06T23:26:54.526Z,6.26
2022-12-06T23:29:26.123Z,6.24
2022-12-06T23:31:55.881Z,6.22
2022-12-06T23:34:27.488Z,6.25
2022-12-06T23:37:00.074Z,6.29
2022-12-06T23:39:29.788Z,6.34
2022-12-06T23:41:59.522Z,6.36
2022-12-06T23:44:29.340Z,6.38
2022-12-06T23:46:59.044Z,6.40
2022-12-06T23:49:28.879Z,6.41
2022-12-06T23:52:01.199Z,6.42
2022-12-06T23:54:30.999Z,6.44
2022-12-06T23:57:00.698Z,6.45
2022-12-06T23:59:30.392Z,6.46
